Time;durP1;ratioP1;P1;durP2;ratioP2;P2;SDS_P1;SDS_P2;PMS_P1;PMS_P2;Temp;Humidity;BMP_temperature;BMP_pressure;BME280_temperature;BME280_humidity;BME280_pressure;Samples;Min_cycle;Max_cycle;Signal;HPM_P1;HPM_P2
2021/05/23 00:00:45;;;;;;;1.20;0.80;;;26.20;59.70;;;;;;5035426;28;20545;-89
2021/05/23 00:03:14;;;;;;;1.07;0.80;;;26.20;59.70;;;;;;5035639;28;20438;-89
2021/05/23 00:05:41;;;;;;;1.00;0.80;;;26.20;59.70;;;;;;5035295;28;20448;-88
2021/05/23 00:08:10;;;;;;;1.30;0.83;;;26.20;59.70;;;;;;5035516;28;20442;-89
2021/05/23 00:10:39;;;;;;;1.10;0.87;;;26.20;59.70;;;;;;5035359;28;20454;-89
2021/05/23 00:13:08;;;;;;;1.00;0.80;;;26.20;59.70;;;;;;5035811;28;20448;-89
2021/05/23 00:15:37;;;;;;;1.10;0.90;;;26.20;59.70;;;;;;5035267;28;20538;-89
2021/05/23 00:18:06;;;;;;;1.30;0.63;;;26.10;59.70;;;;;;5034889;28;20474;-88
2021/05/23 00:20:32;;;;;;;1.33;0.80;;;26.10;59.70;;;;;;5035035;28;20450;-89
2021/05/23 00:22:59;;;;;;;0.90;0.70;;;26.00;59.60;;;;;;5035304;28;20445;-88
2021/05/23 00:25:26;;;;;;;1.23;0.83;;;26.10;59.70;;;;;;5034946;28;20940;-89
2021/05/23 00:27:52;;;;;;;1.00;0.80;;;26.00;59.70;;;;;;5034969;28;20438;-89
2021/05/23 00:30:20;;;;;;;1.00;0.80;;;26.00;59.60;;;;;;5035193;28;20541;-89
2021/05/23 00:32:47;;;;;;;1.00;0.70;;;26.00;59.60;;;;;;5034497;28;20945;-89
2021/05/23 00:35:14;;;;;;;1.00;0.90;;;26.00;59.60;;;;;;5034681;28;20537;-89
2021/05/23 00:37:41;;;;;;;0.97;0.73;;;26.00;59.60;;;;;;5035048;28;20527;-89
2021/05/23 00:40:08;;;;;;;1.10;0.80;;;26.00;59.70;;;;;;5034664;28;20988;-89
2021/05/23 00:42:34;;;;;;;1.03;0.87;;;26.00;59.70;;;;;;5034749;28;20527;-89
2021/05/23 00:45:01;;;;;;;1.13;0.87;;;26.00;59.70;;;;;;5034364;28;21024;-88
2021/05/23 00:47:27;;;;;;;1.00;0.70;;;25.90;59.60;;;;;;5034455;28;20861;-89
2021/05/23 00:49:54;;;;;;;1.67;0.90;;;25.90;59.60;;;;;;5034277;28;21006;-88
2021/05/23 00:52:21;;;;;;;1.20;0.80;;;25.90;59.70;;;;;;5034682;28;20806;-89
2021/05/23 00:54:48;;;;;;;1.00;0.70;;;25.90;59.70;;;;;;5034473;28;20465;-88
2021/05/23 00:57:15;;;;;;;1.10;0.90;;;25.90;59.70;;;;;;5034444;28;20453;-89
2021/05/23 00:59:41;;;;;;;0.90;0.60;;;25.80;59.60;;;;;;5034575;28;20535;-89
2021/05/23 01:02:39;;;;;;;0.90;0.60;;;25.90;59.70;;;;;;5034540;28;20449;-89
2021/05/23 01:05:06;;;;;;;0.93;0.70;;;25.90;59.70;;;;;;5034508;28;20469;-88
2021/05/23 01:07:33;;;;;;;1.33;0.77;;;25.80;59.60;;;;;;5034323;28;20458;-88
2021/05/23 01:10:06;;;;;;;1.10;0.70;;;25.80;59.70;;;;;;5034132;28;20452;-88
2021/05/23 01:13:32;;;;;;;1.10;0.90;;;25.80;59.70;;;;;;5034056;28;20932;-88
2021/05/23 01:15:58;;;;;;;0.90;0.60;;;25.80;59.70;;;;;;4973194;28;20448;-89
2021/05/23 01:18:37;;;;;;;1.00;0.80;;;25.80;59.70;;;;;;5031880;28;20489;-88
2021/05/23 01:21:06;;;;;;;1.00;0.80;;;25.80;59.70;;;;;;5034187;28;20800;-89
2021/05/23 01:23:36;;;;;;;1.00;0.70;;;25.70;59.70;;;;;;5034235;28;20461;-88
2021/05/23 01:26:06;;;;;;;0.90;0.60;;;25.80;59.70;;;;;;5034090;28;20474;-89
2021/05/23 01:28:37;;;;;;;1.00;0.70;;;25.70;60.40;;;;;;5034125;28;20449;-88
2021/05/23 01:31:07;;;;;;;1.00;0.60;;;25.70;59.70;;;;;;5033950;28;20430;-87
2021/05/23 01:33:35;;;;;;;0.97;0.60;;;25.70;59.70;;;;;;5033427;28;20592;-88
2021/05/23 01:36:03;;;;;;;1.00;0.77;;;25.70;59.70;;;;;;5033997;28;20445;-88
2021/05/23 01:38:30;;;;;;;1.00;0.77;;;25.70;59.70;;;;;;5033913;28;20492;-89
2021/05/23 01:41:00;;;;;;;1.10;0.83;;;25.70;59.70;;;;;;5033617;28;20568;-89
2021/05/23 01:43:28;;;;;;;1.03;0.80;;;25.70;59.70;;;;;;5033876;28;20536;-88
2021/05/23 01:45:56;;;;;;;1.10;0.70;;;25.70;59.70;;;;;;5033774;28;20446;-88
2021/05/23 01:48:22;;;;;;;0.90;0.70;;;25.80;59.80;;;;;;5033872;28;20453;-89
2021/05/23 01:50:48;;;;;;;1.00;0.70;;;25.60;59.70;;;;;;5033551;28;20450;-88
2021/05/23 01:53:15;;;;;;;1.00;0.80;;;25.70;59.70;;;;;;5033731;28;20452;-88
2021/05/23 01:55:41;;;;;;;1.30;0.80;;;25.60;59.60;;;;;;5033733;28;20976;-88
2021/05/23 01:58:08;;;;;;;1.00;0.70;;;25.60;59.60;;;;;;5037964;28;20489;-88
2021/05/23 02:00:37;;;;;;;0.90;0.70;;;25.60;59.60;;;;;;5037993;28;20447;-88
2021/05/23 02:03:06;;;;;;;1.10;0.80;;;25.60;59.60;;;;;;5037881;28;20445;-88
2021/05/23 02:05:34;;;;;;;1.00;0.70;;;25.70;59.70;;;;;;5037388;28;20445;-89
2021/05/23 02:08:01;;;;;;;1.00;0.70;;;25.60;59.60;;;;;;5037356;28;20442;-88
2021/05/23 02:10:27;;;;;;;1.00;0.70;;;25.60;59.70;;;;;;5037650;28;20525;-88
2021/05/23 02:12:55;;;;;;;1.10;0.70;;;25.60;59.70;;;;;;5037727;28;20452;-88
2021/05/23 02:15:22;;;;;;;1.00;0.70;;;25.60;59.70;;;;;;5037306;28;20445;-88
2021/05/23 02:17:49;;;;;;;0.90;0.60;;;25.60;59.70;;;;;;5037586;28;20486;-88
2021/05/23 02:20:18;;;;;;;1.03;0.70;;;25.60;59.70;;;;;;5037330;28;20523;-89
2021/05/23 02:22:46;;;;;;;1.00;0.73;;;25.60;59.70;;;;;;5037233;28;20434;-89
2021/05/23 02:25:14;;;;;;;0.90;0.70;;;25.60;59.70;;;;;;5037019;28;20519;-89
2021/05/23 02:27:42;;;;;;;1.13;0.80;;;25.50;59.70;;;;;;5037060;28;20445;-88
2021/05/23 02:30:10;;;;;;;1.20;0.83;;;25.60;59.70;;;;;;5037014;28;20438;-88
2021/05/23 02:32:37;;;;;;;1.00;0.87;;;25.50;59.60;;;;;;5036705;28;20460;-89
2021/05/23 02:35:06;;;;;;;1.00;0.70;;;25.60;59.70;;;;;;5036896;28;20444;-88
2021/05/23 02:37:32;;;;;;;1.00;0.80;;;25.50;59.60;;;;;;5036859;28;20437;-89
2021/05/23 02:40:03;;;;;;;1.00;0.80;;;25.60;59.70;;;;;;5037299;28;20444;-89
2021/05/23 02:42:29;;;;;;;1.00;0.70;;;25.50;59.60;;;;;;5036996;28;20501;-88
2021/05/23 02:44:56;;;;;;;1.20;0.73;;;25.50;59.70;;;;;;5037025;28;20464;-88
2021/05/23 02:47:22;;;;;;;1.10;0.70;;;25.50;59.60;;;;;;5037186;28;20955;-88
2021/05/23 02:49:48;;;;;;;0.90;0.60;;;25.50;59.70;;;;;;5037178;28;20453;-88
2021/05/23 02:52:16;;;;;;;1.00;0.80;;;25.60;59.70;;;;;;5036541;28;20467;-88
2021/05/23 02:54:43;;;;;;;1.00;0.77;;;25.60;59.70;;;;;;5036575;28;20469;-89
2021/05/23 02:57:09;;;;;;;1.50;0.90;;;25.50;59.60;;;;;;5036950;28;20579;-89
2021/05/23 02:59:35;;;;;;;1.00;0.70;;;25.50;59.60;;;;;;5036281;28;20491;-89
2021/05/23 03:02:02;;;;;;;0.90;0.60;;;25.50;59.60;;;;;;5036631;28;20537;-89
2021/05/23 03:04:28;;;;;;;1.00;0.77;;;25.70;59.70;;;;;;5042588;28;20428;-89
2021/05/23 03:06:55;;;;;;;1.00;0.70;;;25.50;59.50;;;;;;5060690;28;20512;-89
2021/05/23 03:09:22;;;;;;;1.00;0.70;;;25.50;59.50;;;;;;5060312;28;20457;-89
2021/05/23 03:11:48;;;;;;;1.00;0.70;;;25.60;59.60;;;;;;5061002;28;20460;-89
2021/05/23 03:14:15;;;;;;;0.97;0.70;;;25.50;59.50;;;;;;5040885;28;20529;-88
2021/05/23 03:16:41;;;;;;;0.93;0.70;;;25.50;59.50;;;;;;5039112;28;20446;-88
2021/05/23 03:19:08;;;;;;;1.00;0.80;;;25.70;59.60;;;;;;5038770;28;20485;-88
2021/05/23 03:21:35;;;;;;;1.00;0.70;;;25.60;59.60;;;;;;5036680;28;20454;-89
2021/05/23 03:24:01;;;;;;;1.00;0.80;;;25.50;59.50;;;;;;5036230;28;20462;-88
2021/05/23 03:26:28;;;;;;;1.00;0.70;;;25.60;59.60;;;;;;5036200;28;20503;-88
2021/05/23 03:28:55;;;;;;;0.90;0.70;;;25.50;59.50;;;;;;5036273;28;20512;-88
2021/05/23 03:31:21;;;;;;;0.90;0.80;;;25.50;59.50;;;;;;5036534;28;20438;-89
2021/05/23 03:33:47;;;;;;;0.90;0.63;;;25.50;59.50;;;;;;5035962;28;20462;-88
2021/05/23 03:36:14;;;;;;;1.00;0.80;;;25.50;60.00;;;;;;5036328;28;20430;-88
2021/05/23 03:38:43;;;;;;;1.00;0.80;;;25.60;59.50;;;;;;5035841;28;20572;-89
2021/05/23 03:41:09;;;;;;;1.00;0.80;;;25.50;59.50;;;;;;5035997;28;20999;-88
2021/05/23 03:43:36;;;;;;;0.90;0.70;;;25.60;59.50;;;;;;5036078;28;20442;-89
2021/05/23 03:46:03;;;;;;;1.10;0.80;;;25.50;59.40;;;;;;5035985;28;20450;-88
2021/05/23 03:48:29;;;;;;;1.03;0.73;;;25.50;59.40;;;;;;5035771;28;20470;-88
2021/05/23 03:50:56;;;;;;;1.10;0.80;;;25.50;59.40;;;;;;5035621;28;20474;-88
2021/05/23 03:53:22;;;;;;;1.00;0.80;;;25.60;59.50;;;;;;5035594;28;20843;-89
2021/05/23 03:55:49;;;;;;;1.00;0.70;;;25.60;59.50;;;;;;5035503;28;20555;-88
2021/05/23 03:58:16;;;;;;;0.90;0.70;;;25.50;59.40;;;;;;5035880;28;20832;-89
2021/05/23 04:00:43;;;;;;;1.00;0.90;;;25.60;59.50;;;;;;5035847;28;20444;-89
2021/05/23 04:03:10;;;;;;;1.00;0.80;;;25.50;59.40;;;;;;5035649;28;20437;-89
2021/05/23 04:05:36;;;;;;;1.00;0.80;;;25.50;59.40;;;;;;5035451;28;20545;-88
2021/05/23 04:08:03;;;;;;;1.00;0.80;;;25.50;59.40;;;;;;5035327;28;20487;-87
2021/05/23 04:10:34;;;;;;;1.00;0.73;;;25.50;59.40;;;;;;5035466;28;20437;-89
2021/05/23 04:13:03;;;;;;;0.97;0.73;;;25.50;59.40;;;;;;5035175;28;20503;-88
2021/05/23 04:15:30;;;;;;;1.00;0.70;;;25.50;59.40;;;;;;5035223;28;20499;-89
2021/05/23 04:17:57;;;;;;;1.00;0.70;;;25.50;59.40;;;;;;5034921;28;20479;-88
2021/05/23 04:20:25;;;;;;;1.20;0.90;;;25.50;59.40;;;;;;5034824;28;20446;-88
2021/05/23 04:22:52;;;;;;;1.00;0.67;;;25.60;59.40;;;;;;5035099;28;20446;-89
2021/05/23 04:25:19;;;;;;;1.00;0.80;;;25.50;59.40;;;;;;5034936;28;20513;-89
2021/05/23 04:27:47;;;;;;;1.00;0.70;;;25.60;59.40;;;;;;5035202;28;20933;-88
2021/05/23 04:30:15;;;;;;;1.00;0.70;;;25.50;59.40;;;;;;5034884;28;20434;-88
2021/05/23 04:32:41;;;;;;;1.30;0.80;;;25.50;59.40;;;;;;5034547;28;20834;-89
2021/05/23 04:35:11;;;;;;;1.00;0.80;;;25.50;59.40;;;;;;5034687;28;20440;-89
2021/05/23 04:37:38;;;;;;;1.07;0.80;;;25.60;59.50;;;;;;5034624;28;20447;-89
2021/05/23 04:40:06;;;;;;;0.90;0.70;;;25.60;59.40;;;;;;5034743;28;20455;-89
2021/05/23 04:42:33;;;;;;;1.00;0.80;;;25.50;59.40;;;;;;5034994;28;20530;-89
2021/05/23 04:44:59;;;;;;;1.10;0.80;;;25.50;59.40;;;;;;5035021;28;20808;-88
2021/05/23 04:47:27;;;;;;;1.00;0.80;;;25.60;59.40;;;;;;5034688;28;20533;-89
2021/05/23 04:49:54;;;;;;;1.00;0.80;;;25.50;59.30;;;;;;5034651;28;20457;-89
2021/05/23 04:52:21;;;;;;;1.20;0.90;;;25.50;59.40;;;;;;5034565;28;20438;-88
2021/05/23 04:54:47;;;;;;;1.00;0.80;;;25.60;59.40;;;;;;5034210;28;20473;-88
2021/05/23 04:57:14;;;;;;;0.90;0.70;;;25.50;59.30;;;;;;5034480;28;20518;-88
2021/05/23 04:59:40;;;;;;;1.10;0.80;;;25.60;59.40;;;;;;5034065;28;20851;-88
2021/05/23 05:02:07;;;;;;;1.10;0.80;;;25.60;59.40;;;;;;5034402;28;20450;-88
2021/05/23 05:04:33;;;;;;;1.00;0.87;;;25.60;59.40;;;;;;5034768;28;20905;-88
2021/05/23 05:06:59;;;;;;;1.00;0.77;;;25.60;59.30;;;;;;5034310;28;20526;-88
2021/05/23 05:09:27;;;;;;;1.00;0.70;;;25.60;59.30;;;;;;5034224;28;20524;-88
2021/05/23 05:11:53;;;;;;;1.10;0.90;;;25.60;59.30;;;;;;5034102;28;20457;-88
2021/05/23 05:14:20;;;;;;;1.00;0.80;;;25.60;59.30;;;;;;5034541;28;21024;-88
2021/05/23 05:16:46;;;;;;;1.10;1.00;;;25.60;59.30;;;;;;5034365;28;20438;-89
2021/05/23 05:19:12;;;;;;;1.07;0.90;;;25.60;59.30;;;;;;5033942;28;21059;-89
2021/05/23 05:21:39;;;;;;;1.10;0.80;;;25.40;59.20;;;;;;5034156;28;20957;-88
2021/05/23 05:24:06;;;;;;;1.00;0.70;;;25.60;59.30;;;;;;5034275;28;20547;-88
2021/05/23 05:26:33;;;;;;;1.00;0.80;;;25.60;59.40;;;;;;5033834;28;20448;-88
2021/05/23 05:28:59;;;;;;;1.20;1.10;;;25.60;59.30;;;;;;5033814;28;20446;-88
2021/05/23 05:31:26;;;;;;;1.97;0.80;;;25.60;59.30;;;;;;5033066;28;20442;-89
2021/05/23 05:33:53;;;;;;;1.10;1.00;;;25.60;59.30;;;;;;5033454;28;20557;-89
2021/05/23 05:36:19;;;;;;;1.00;0.80;;;25.60;59.30;;;;;;5033843;28;20442;-88
2021/05/23 05:38:48;;;;;;;1.00;0.80;;;25.60;59.30;;;;;;5033479;28;20492;-88
2021/05/23 05:41:14;;;;;;;1.10;1.00;;;25.60;59.30;;;;;;5033743;28;20478;-88
2021/05/23 05:43:42;;;;;;;0.97;0.80;;;25.60;59.30;;;;;;5033972;28;20437;-89
2021/05/23 05:46:08;;;;;;;1.20;0.97;;;25.60;59.30;;;;;;5033779;28;20453;-88
2021/05/23 05:48:35;;;;;;;1.00;0.80;;;25.60;59.30;;;;;;5034373;28;20540;-88
2021/05/23 05:51:01;;;;;;;1.40;1.03;;;25.60;59.30;;;;;;5034224;28;20446;-88
2021/05/23 05:53:28;;;;;;;0.90;0.73;;;25.60;59.30;;;;;;5033536;28;20448;-87
2021/05/23 05:55:54;;;;;;;1.10;0.90;;;25.60;59.30;;;;;;5033256;28;20515;-88
2021/05/23 05:58:20;;;;;;;1.40;0.90;;;25.60;59.30;;;;;;5033588;28;20540;-87
2021/05/23 06:00:47;;;;;;;1.10;0.90;;;25.60;59.30;;;;;;5033277;28;20872;-87
2021/05/23 06:03:14;;;;;;;1.27;0.90;;;25.60;59.30;;;;;;5033155;28;20956;-88
2021/05/23 06:05:40;;;;;;;0.97;0.77;;;25.80;59.40;;;;;;5033461;28;20450;-87
2021/05/23 06:08:07;;;;;;;1.07;0.93;;;25.70;59.30;;;;;;5033540;28;20499;-88
2021/05/23 06:10:33;;;;;;;1.00;0.90;;;25.60;59.30;;;;;;5033126;28;20959;-88
2021/05/23 06:13:00;;;;;;;1.00;0.87;;;25.60;59.30;;;;;;5033339;28;20856;-88
2021/05/23 06:15:28;;;;;;;1.27;0.87;;;25.60;59.30;;;;;;5033492;28;20477;-87
2021/05/23 06:17:55;;;;;;;1.03;0.90;;;25.70;59.30;;;;;;5033106;28;20851;-88
2021/05/23 06:20:22;;;;;;;1.23;0.80;;;25.70;59.30;;;;;;5033761;28;20485;-87
2021/05/23 06:22:48;;;;;;;1.23;1.07;;;25.70;59.80;;;;;;5035570;28;20448;-88
2021/05/23 06:25:15;;;;;;;1.00;0.80;;;25.70;59.30;;;;;;5035135;28;20472;-87
2021/05/23 06:27:41;;;;;;;1.10;0.90;;;25.70;59.30;;;;;;5033577;28;20442;-88
2021/05/23 06:30:09;;;;;;;1.00;0.90;;;25.70;59.30;;;;;;5033292;28;20464;-88
2021/05/23 06:32:35;;;;;;;1.00;0.80;;;25.70;59.30;;;;;;5033922;28;20845;-89
2021/05/23 06:35:03;;;;;;;1.00;0.80;;;25.70;59.20;;;;;;5033293;28;20440;-88
2021/05/23 06:37:29;;;;;;;1.07;0.97;;;25.70;59.30;;;;;;5033105;28;20442;-88
2021/05/23 06:39:55;;;;;;;1.10;1.00;;;25.70;59.20;;;;;;5034489;28;20836;-88
2021/05/23 06:42:22;;;;;;;1.00;0.90;;;25.70;59.30;;;;;;5035167;28;20445;-88
2021/05/23 06:44:49;;;;;;;1.10;1.00;;;25.70;59.30;;;;;;5039020;28;20448;-88
2021/05/23 06:47:16;;;;;;;1.00;0.87;;;25.70;59.30;;;;;;5040966;28;20445;-88
2021/05/23 06:49:42;;;;;;;1.10;0.93;;;25.70;59.30;;;;;;5039635;28;20442;-88
2021/05/23 06:52:09;;;;;;;1.00;0.80;;;25.70;59.30;;;;;;5037099;28;20443;-88
2021/05/23 06:54:36;;;;;;;1.00;0.80;;;25.70;59.20;;;;;;5038490;28;20462;-88
2021/05/23 06:57:02;;;;;;;1.20;1.00;;;25.70;59.20;;;;;;5036606;28;20456;-88
2021/05/23 06:59:29;;;;;;;1.00;0.90;;;25.70;59.30;;;;;;5036631;28;20489;-88
2021/05/23 07:01:55;;;;;;;1.00;0.90;;;25.70;59.30;;;;;;5036639;28;20457;-88
2021/05/23 07:04:21;;;;;;;1.00;0.90;;;25.70;59.20;;;;;;5036738;28;20450;-88
2021/05/23 07:06:48;;;;;;;1.00;0.80;;;25.70;59.30;;;;;;5036549;28;20451;-87
2021/05/23 07:09:18;;;;;;;1.00;0.90;;;25.70;59.20;;;;;;5036670;28;20454;-88
2021/05/23 07:11:44;;;;;;;1.20;0.90;;;25.70;59.20;;;;;;5036228;28;20452;-88
2021/05/23 07:14:10;;;;;;;1.00;0.90;;;25.70;59.20;;;;;;5036115;28;20824;-87
2021/05/23 07:16:37;;;;;;;1.13;0.93;;;25.70;59.20;;;;;;5036478;28;20444;-88
2021/05/23 07:19:03;;;;;;;1.10;0.90;;;25.70;59.10;;;;;;5036820;28;20587;-88
2021/05/23 07:21:30;;;;;;;1.40;0.80;;;25.70;59.20;;;;;;5036030;28;20453;-90
2021/05/23 07:23:56;;;;;;;1.43;1.10;;;25.70;59.20;;;;;;5036576;28;20465;-90
2021/05/23 07:26:23;;;;;;;1.47;1.07;;;25.80;59.30;;;;;;5035912;28;20452;-84
2021/05/23 07:28:50;;;;;;;2.40;1.60;;;25.80;59.30;;;;;;5036276;28;20439;-85
2021/05/23 07:31:16;;;;;;;2.13;1.40;;;25.70;59.10;;;;;;5035901;28;20446;-85
2021/05/23 07:33:42;;;;;;;1.60;1.40;;;25.70;59.20;;;;;;5035771;28;20847;-85
2021/05/23 07:36:11;;;;;;;1.77;1.00;;;25.70;59.10;;;;;;5035841;28;20937;-85
2021/05/23 07:38:38;;;;;;;1.83;1.20;;;25.70;59.10;;;;;;5035585;28;20489;-86
2021/05/23 07:41:04;;;;;;;4.57;1.20;;;25.70;59.20;;;;;;5036139;28;20774;-86
2021/05/23 07:43:32;;;;;;;1.37;1.00;;;25.70;59.10;;;;;;5035443;28;21006;-85
2021/05/23 07:45:58;;;;;;;2.03;1.10;;;25.70;59.10;;;;;;5035743;28;20809;-86
2021/05/23 07:48:26;;;;;;;2.23;1.17;;;25.70;59.10;;;;;;5035680;28;20542;-84
2021/05/23 07:50:52;;;;;;;1.80;1.20;;;25.70;59.60;;;;;;5043841;28;20434;-85
2021/05/23 07:53:18;;;;;;;1.73;1.20;;;25.80;59.10;;;;;;5054738;28;20449;-85
2021/05/23 07:55:45;;;;;;;2.60;1.20;;;25.80;59.10;;;;;;5055249;28;20464;-88
2021/05/23 07:58:12;;;;;;;2.80;1.10;;;25.80;59.10;;;;;;5055558;28;20582;-88
2021/05/23 08:00:39;;;;;;;2.80;1.40;;;25.80;59.40;;;;;;5055382;28;20643;-90
2021/05/23 08:03:06;;;;;;;3.07;1.60;;;25.90;58.50;;;;;;5055346;28;20448;-89
2021/05/23 08:05:32;;;;;;;4.43;1.60;;;25.90;58.20;;;;;;5055455;28;20480;-89
2021/05/23 08:07:58;;;;;;;1.70;1.10;;;25.80;58.50;;;;;;5065479;28;20425;-89
2021/05/23 08:10:25;;;;;;;1.80;1.10;;;25.90;58.90;;;;;;5074602;28;20472;-89
2021/05/23 08:12:52;;;;;;;3.47;1.60;;;25.90;59.00;;;;;;5074644;28;20448;-89
2021/05/23 08:15:18;;;;;;;4.50;1.27;;;25.90;59.20;;;;;;5073793;28;20523;-90
2021/05/23 08:17:46;;;;;;;4.60;1.43;;;26.00;59.30;;;;;;5060879;28;20440;-89
2021/05/23 08:20:15;;;;;;;2.07;1.30;;;26.00;59.40;;;;;;5059277;28;20525;-89
2021/05/23 08:22:41;;;;;;;1.70;1.20;;;26.00;59.40;;;;;;5057637;28;20452;-89
2021/05/23 08:25:10;;;;;;;5.10;1.20;;;26.00;59.40;;;;;;5056065;28;20487;-89
2021/05/23 08:27:36;;;;;;;2.37;1.10;;;26.00;59.50;;;;;;5055850;28;20455;-89
2021/05/23 08:30:04;;;;;;;1.80;1.20;;;26.00;59.60;;;;;;5055580;28;20471;-89
2021/05/23 08:32:30;;;;;;;1.30;1.10;;;26.10;59.70;;;;;;5055808;28;20445;-87
2021/05/23 08:34:57;;;;;;;3.93;1.13;;;26.10;59.80;;;;;;5054584;28;20905;-87
2021/05/23 08:37:23;;;;;;;1.97;1.23;;;26.10;59.50;;;;;;5054722;28;20927;-88
2021/05/23 08:39:50;;;;;;;1.30;1.00;;;26.10;59.30;;;;;;5054415;28;20481;-88
2021/05/23 08:42:16;;;;;;;1.73;1.00;;;26.10;59.40;;;;;;5054309;28;20445;-88
2021/05/23 08:44:42;;;;;;;1.50;1.20;;;26.20;59.40;;;;;;5054466;28;20449;-88
2021/05/23 08:47:09;;;;;;;1.80;1.00;;;26.20;59.40;;;;;;5054591;28;20449;-88
2021/05/23 08:49:35;;;;;;;3.03;1.17;;;26.20;59.40;;;;;;5054563;28;20574;-88
2021/05/23 08:52:03;;;;;;;4.70;1.20;;;26.20;59.40;;;;;;5054330;28;20954;-89
2021/05/23 08:54:29;;;;;;;1.80;1.10;;;26.20;59.40;;;;;;5053874;28;20461;-88
2021/05/23 08:56:56;;;;;;;1.70;1.10;;;26.20;59.40;;;;;;5054219;28;20437;-89
2021/05/23 08:59:22;;;;;;;2.53;1.60;;;26.20;59.40;;;;;;5054065;28;20536;-88
2021/05/23 09:01:48;;;;;;;4.17;1.00;;;26.30;59.50;;;;;;5053921;28;20437;-88
2021/05/23 09:04:16;;;;;;;3.13;1.10;;;26.30;59.40;;;;;;5054223;28;20964;-88
2021/05/23 09:06:42;;;;;;;2.20;1.37;;;26.30;59.40;;;;;;5054041;28;20954;-91
2021/05/23 09:09:13;;;;;;;1.23;1.00;;;26.40;59.40;;;;;;5054011;28;20502;-87
2021/05/23 09:11:50;;;;;;;3.33;1.03;;;26.40;59.50;;;;;;5054794;28;20446;-87
2021/05/23 09:14:30;;;;;;;5.17;1.20;;;26.40;59.50;;;;;;5054361;28;20915;-87
2021/05/23 09:16:57;;;;;;;2.33;1.17;;;26.40;59.50;;;;;;5053990;28;20429;-87
2021/05/23 09:19:24;;;;;;;2.43;1.20;;;26.40;59.40;;;;;;5053719;28;21088;-90
2021/05/23 09:21:50;;;;;;;3.53;1.10;;;26.50;59.40;;;;;;5053748;28;21046;-86
2021/05/23 09:24:17;;;;;;;1.83;1.47;;;26.50;58.40;;;;;;5053806;28;20556;-88
2021/05/23 09:26:46;;;;;;;1.90;1.10;;;26.50;58.00;;;;;;5053817;28;20441;-87
2021/05/23 09:29:15;;;;;;;2.87;1.23;;;26.40;57.80;;;;;;5053824;28;20798;-89
2021/05/23 09:31:45;;;;;;;3.83;1.43;;;26.40;57.80;;;;;;5054274;28;20924;-91
2021/05/23 09:34:20;;;;;;;5.10;1.47;;;26.40;57.90;;;;;;5053787;28;20503;-92
2021/05/23 09:36:47;;;;;;;1.40;1.00;;;26.40;57.20;;;;;;5053806;28;20440;-90
2021/05/23 09:39:14;;;;;;;3.40;1.00;;;26.40;58.00;;;;;;5053409;28;21009;-89
2021/05/23 09:41:42;;;;;;;6.53;1.40;;;26.40;58.00;;;;;;5053584;28;20929;-89
2021/05/23 09:44:17;;;;;;;2.27;1.10;;;26.40;58.10;;;;;;5053686;28;20453;-88
2021/05/23 09:46:54;;;;;;;1.50;1.07;;;26.40;58.30;;;;;;5053728;28;20433;-88
2021/05/23 09:49:21;;;;;;;2.67;1.13;;;26.40;58.40;;;;;;5053694;28;20771;-89
2021/05/23 09:51:53;;;;;;;2.00;1.17;;;26.40;58.40;;;;;;5053628;28;20444;-89
2021/05/23 09:54:19;;;;;;;1.33;1.00;;;26.40;58.50;;;;;;5053685;28;20473;-88
2021/05/23 09:56:47;;;;;;;1.70;1.03;;;26.40;58.50;;;;;;5053497;28;20437;-89
2021/05/23 09:59:21;;;;;;;1.63;1.10;;;26.40;58.60;;;;;;5053163;28;20491;-89
2021/05/23 10:01:48;;;;;;;1.50;1.00;;;26.40;58.60;;;;;;5053413;28;20440;-90
2021/05/23 10:04:18;;;;;;;1.63;1.10;;;26.50;58.70;;;;;;5053449;28;20442;-88
2021/05/23 10:06:56;;;;;;;1.30;1.17;;;26.50;58.70;;;;;;5053356;28;20554;-89
2021/05/23 10:09:23;;;;;;;1.70;1.20;;;26.50;58.70;;;;;;5053350;28;20841;-88
2021/05/23 10:11:50;;;;;;;2.37;1.20;;;26.50;58.70;;;;;;5053518;28;20790;-89
2021/05/23 10:14:16;;;;;;;1.10;0.93;;;26.50;58.70;;;;;;5036019;28;20536;-89
2021/05/23 10:16:44;;;;;;;1.40;1.03;;;26.40;58.70;;;;;;5053695;28;20440;-89
2021/05/23 10:19:12;;;;;;;1.67;1.00;;;26.40;58.70;;;;;;5057106;28;20892;-89
2021/05/23 10:21:38;;;;;;;1.30;1.00;;;26.50;58.70;;;;;;5057350;28;20451;-89
2021/05/23 10:24:06;;;;;;;1.50;1.00;;;26.50;58.80;;;;;;5057145;28;20971;-90
2021/05/23 10:26:33;;;;;;;2.03;0.90;;;26.50;58.80;;;;;;5056944;28;20441;-87
2021/05/23 10:29:02;;;;;;;1.90;0.90;;;26.50;57.60;;;;;;5057082;28;20591;-87
2021/05/23 10:31:30;;;;;;;2.20;1.93;;;26.50;56.70;;;;;;5057318;28;20784;-89
2021/05/23 10:33:57;;;;;;;1.10;0.80;;;26.50;56.70;;;;;;5056923;28;20554;-88
2021/05/23 10:36:31;;;;;;;1.93;1.00;;;26.40;56.80;;;;;;5057441;28;20437;-86
2021/05/23 10:38:59;;;;;;;4.30;1.00;;;26.40;56.80;;;;;;5056805;28;20510;-88
2021/05/23 10:41:25;;;;;;;1.60;1.10;;;26.30;56.80;;;;;;5057082;28;20935;-87
2021/05/23 10:43:59;;;;;;;1.43;1.00;;;26.30;56.80;;;;;;5056663;28;20472;-89
2021/05/23 10:46:26;;;;;;;1.50;0.80;;;26.40;56.90;;;;;;5056843;28;20487;-87
2021/05/23 10:48:55;;;;;;;2.60;1.00;;;26.30;56.90;;;;;;5056398;28;20445;-87
2021/05/23 10:51:22;;;;;;;1.43;1.33;;;26.30;57.00;;;;;;5056432;28;20491;-87
2021/05/23 10:53:49;;;;;;;1.67;0.97;;;26.30;57.00;;;;;;5056697;28;21036;-87
2021/05/23 10:56:22;;;;;;;2.27;1.00;;;26.30;57.00;;;;;;5056588;28;20801;-89
2021/05/23 10:58:53;;;;;;;1.97;1.00;;;26.30;57.00;;;;;;5056258;28;21098;-87
2021/05/23 11:01:24;;;;;;;1.93;0.90;;;26.30;57.00;;;;;;5056522;28;20502;-87
2021/05/23 11:03:51;;;;;;;1.30;1.00;;;26.30;57.00;;;;;;5056451;28;20521;-87
2021/05/23 11:06:22;;;;;;;1.40;1.23;;;26.30;57.00;;;;;;5056556;28;20440;-87
2021/05/23 11:08:49;;;;;;;1.20;0.90;;;26.30;57.00;;;;;;5056407;28;20502;-88
2021/05/23 11:11:20;;;;;;;2.57;1.00;;;26.30;57.10;;;;;;5056004;28;20869;-87
2021/05/23 11:13:47;;;;;;;1.70;1.00;;;26.30;57.10;;;;;;5055973;28;20573;-87
2021/05/23 11:16:16;;;;;;;1.63;1.00;;;26.20;57.00;;;;;;5056237;28;20441;-86
2021/05/23 11:18:43;;;;;;;1.97;1.20;;;26.20;57.00;;;;;;5056086;28;20477;-87
2021/05/23 11:21:12;;;;;;;1.57;1.10;;;26.20;57.10;;;;;;5055822;28;20539;-87
2021/05/23 11:23:46;;;;;;;2.57;0.80;;;26.30;57.00;;;;;;5055916;28;20488;-87
2021/05/23 11:26:15;;;;;;;1.73;0.80;;;26.30;57.00;;;;;;5055893;28;20441;-90
2021/05/23 11:28:48;;;;;;;1.50;1.10;;;26.30;57.10;;;;;;5054811;28;20442;-87
2021/05/23 11:31:21;;;;;;;2.00;0.90;;;26.20;57.10;;;;;;5055840;28;20441;-86
2021/05/23 11:33:49;;;;;;;1.10;0.90;;;26.20;57.00;;;;;;5055585;28;20491;-87
2021/05/23 11:36:19;;;;;;;1.00;0.80;;;26.20;57.00;;;;;;5055722;28;20923;-87
2021/05/23 11:38:45;;;;;;;1.40;0.90;;;26.20;57.00;;;;;;5055489;28;20485;-87
2021/05/23 11:41:12;;;;;;;1.20;0.80;;;26.20;57.00;;;;;;5055778;28;20784;-90
2021/05/23 11:43:38;;;;;;;2.20;1.10;;;26.30;57.00;;;;;;5055512;28;20583;-87
2021/05/23 11:46:06;;;;;;;1.40;0.87;;;26.20;56.90;;;;;;5055412;28;20541;-87
2021/05/23 11:48:35;;;;;;;1.30;0.90;;;26.20;56.80;;;;;;5055355;28;20446;-87
2021/05/23 11:51:02;;;;;;;1.30;0.70;;;26.20;56.80;;;;;;5055455;28;20442;-87
2021/05/23 11:53:37;;;;;;;1.03;0.83;;;26.20;56.80;;;;;;5055320;28;20458;-87
2021/05/23 11:56:04;;;;;;;1.80;1.00;;;26.30;56.90;;;;;;5055212;28;20447;-87
2021/05/23 11:58:30;;;;;;;1.57;0.80;;;26.20;56.80;;;;;;5055212;28;20494;-87
2021/05/23 12:01:18;;;;;;;1.70;0.90;;;26.20;56.80;;;;;;5055066;28;20786;-86
2021/05/23 12:03:55;;;;;;;1.53;0.93;;;26.20;56.70;;;;;;5055178;28;20548;-87
2021/05/23 12:06:22;;;;;;;1.30;0.90;;;26.20;56.80;;;;;;5055229;28;20489;-88
2021/05/23 12:08:49;;;;;;;1.40;0.90;;;26.20;56.80;;;;;;5055133;28;20438;-87
2021/05/23 12:11:16;;;;;;;1.10;0.73;;;26.20;56.80;;;;;;5055217;28;20451;-86
2021/05/23 12:13:44;;;;;;;1.00;0.70;;;26.20;56.80;;;;;;5054818;28;20929;-88
2021/05/23 12:16:12;;;;;;;3.10;1.10;;;26.20;56.70;;;;;;5054989;28;20444;-87
2021/05/23 12:18:41;;;;;;;1.20;0.90;;;26.20;56.70;;;;;;5054678;28;20487;-88
2021/05/23 12:21:11;;;;;;;1.43;1.00;;;26.20;56.70;;;;;;5055134;28;20430;-90
2021/05/23 12:23:38;;;;;;;1.00;0.90;;;26.20;56.70;;;;;;5055189;28;20522;-87
2021/05/23 12:26:10;;;;;;;1.63;0.83;;;26.20;56.70;;;;;;5054926;28;20590;-87
2021/05/23 12:28:42;;;;;;;1.70;0.90;;;26.20;56.70;;;;;;5054716;28;20544;-86
2021/05/23 12:31:10;;;;;;;1.70;1.40;;;26.20;56.80;;;;;;5054576;28;20638;-87
2021/05/23 12:33:37;;;;;;;1.70;0.90;;;26.20;56.80;;;;;;5054273;28;20477;-86
2021/05/23 12:36:09;;;;;;;1.33;1.10;;;26.20;56.70;;;;;;5054511;28;20442;-87
2021/05/23 12:38:37;;;;;;;1.50;1.00;;;26.10;56.60;;;;;;5054230;28;20869;-87
2021/05/23 12:41:05;;;;;;;1.37;0.90;;;26.20;56.60;;;;;;5054399;28;20445;-87
2021/05/23 12:43:34;;;;;;;3.03;1.43;;;26.20;56.50;;;;;;5054187;28;20453;-87
2021/05/23 12:46:02;;;;;;;1.00;0.70;;;26.10;56.50;;;;;;5054425;28;20453;-87
2021/05/23 12:48:33;;;;;;;2.33;0.83;;;26.10;56.50;;;;;;5054357;28;21024;-87
2021/05/23 12:51:01;;;;;;;1.20;0.80;;;26.10;56.60;;;;;;5054197;28;20443;-87